createdAt,value
2023-06-15T00:02:17.429Z,17.82
2023-06-15T00:04:44.071Z,17.76
2023-06-15T00:07:11.108Z,17.69
2023-06-15T00:09:37.544Z,17.61
2023-06-15T00:12:04.201Z,17.54
2023-06-15T00:14:31.278Z,17.39
2023-06-15T00:16:58.901Z,17.37
2023-06-15T00:19:25.593Z,17.37
2023-06-15T00:21:54.608Z,17.41
2023-06-15T00:24:21.893Z,17.36
2023-06-15T00:26:48.427Z,17.28
2023-06-15T00:29:15.178Z,17.22
2023-06-15T00:31:41.668Z,17.18
2023-06-15T00:34:08.098Z,17.11
2023-06-15T00:36:34.585Z,17.03
2023-06-15T00:39:01.083Z,17.03
2023-06-15T00:41:27.576Z,16.98
2023-06-15T00:43:54.045Z,16.98
2023-06-15T00:46:21.379Z,17.00
2023-06-15T00:48:48.257Z,17.03
2023-06-15T00:51:15.160Z,16.99
2023-06-15T00:53:44.863Z,16.93
2023-06-15T00:56:11.803Z,16.89
2023-06-15T00:58:38.485Z,16.88
2023-06-15T01:01:05.038Z,16.81
2023-06-15T01:03:32.364Z,16.75
2023-06-15T01:06:01.021Z,16.71
2023-06-15T01:08:28.193Z,16.68
2023-06-15T01:10:57.353Z,16.62
2023-06-15T01:13:23.967Z,16.54
2023-06-15T01:15:54.394Z,16.54
2023-06-15T01:18:22.420Z,16.52
2023-06-15T01:20:51.266Z,16.51
2023-06-15T01:23:50.844Z,16.47
2023-06-15T01:26:19.670Z,16.41
2023-06-15T01:28:48.888Z,16.39
2023-06-15T01:31:15.890Z,16.40
2023-06-15T01:33:50.123Z,16.37
2023-06-15T01:36:16.820Z,16.31
2023-06-15T01:38:46.525Z,16.30
2023-06-15T01:41:13.854Z,16.24
2023-06-15T01:43:41.066Z,16.15
2023-06-15T01:46:07.942Z,16.03
2023-06-15T01:48:34.714Z,15.91
2023-06-15T01:51:03.214Z,15.88
2023-06-15T01:53:29.705Z,15.84
2023-06-15T01:55:57.593Z,15.80
2023-06-15T01:58:24.183Z,15.79
2023-06-15T02:00:50.798Z,15.72
2023-06-15T02:03:17.475Z,15.67
2023-06-15T02:05:44.044Z,15.62
2023-06-15T02:08:12.081Z,15.61
2023-06-15T02:10:38.972Z,15.56
2023-06-15T02:13:11.560Z,15.51
2023-06-15T02:15:38.224Z,15.53
2023-06-15T02:18:13.389Z,15.54
2023-06-15T02:20:44.435Z,15.56
2023-06-15T02:23:14.859Z,15.51
2023-06-15T02:25:41.452Z,15.45
2023-06-15T02:28:07.991Z,15.43
2023-06-15T02:30:34.463Z,15.38
2023-06-15T02:33:02.298Z,15.33
2023-06-15T02:35:29.371Z,15.32
2023-06-15T02:37:56.492Z,15.40
2023-06-15T02:40:23.380Z,15.36
2023-06-15T02:42:49.801Z,15.30
2023-06-15T02:45:17.068Z,15.32
2023-06-15T02:47:43.808Z,15.40
2023-06-15T02:50:10.774Z,15.41
2023-06-15T02:52:38.143Z,15.44
2023-06-15T02:55:05.300Z,15.43
2023-06-15T02:57:31.748Z,15.36
2023-06-15T02:59:58.250Z,15.41
2023-06-15T03:02:24.842Z,15.44
2023-06-15T03:04:51.732Z,15.46
2023-06-15T03:07:21.634Z,15.49
2023-06-15T03:09:49.201Z,15.50
2023-06-15T03:12:16.571Z,15.50
2023-06-15T03:14:45.513Z,15.42
2023-06-15T03:17:14.347Z,15.41
2023-06-15T03:19:41.460Z,15.33
2023-06-15T03:22:10.956Z,15.28
2023-06-15T03:24:37.766Z,15.28
2023-06-15T03:27:07.821Z,15.26
2023-06-15T03:29:37.943Z,15.21
2023-06-15T03:32:08.718Z,15.16
2023-06-15T03:34:39.188Z,15.15
2023-06-15T03:37:06.857Z,15.10
2023-06-15T03:39:33.569Z,15.14
2023-06-15T03:42:00.063Z,15.15
2023-06-15T03:44:26.894Z,15.14
2023-06-15T03:46:53.394Z,15.15
2023-06-15T03:49:19.847Z,15.18
2023-06-15T03:51:46.656Z,15.11
2023-06-15T03:54:13.063Z,15.12
2023-06-15T03:56:40.221Z,15.17
2023-06-15T03:59:06.702Z,15.20
2023-06-15T04:01:34.064Z,15.25
2023-06-15T04:04:00.745Z,15.30
2023-06-15T04:06:27.621Z,15.37
2023-06-15T04:08:56.272Z,15.40
2023-06-15T04:11:23.187Z,15.48
2023-06-15T04:13:49.784Z,15.55
2023-06-15T04:16:16.735Z,15.63
2023-06-15T04:18:43.232Z,15.62
2023-06-15T04:21:09.637Z,15.67
2023-06-15T04:23:36.315Z,15.72
2023-06-15T04:26:04.323Z,15.69
2023-06-15T04:28:31.712Z,15.81
2023-06-15T04:31:11.587Z,16.08
2023-06-15T04:33:43.399Z,16.76
2023-06-15T04:36:14.928Z,17.56
2023-06-15T04:38:47.661Z,18.45
2023-06-15T04:41:16.125Z,19.26
2023-06-15T04:43:42.969Z,19.99
2023-06-15T04:46:09.956Z,20.51
2023-06-15T04:48:36.501Z,20.86
2023-06-15T04:51:03.088Z,21.28
2023-06-15T04:53:29.595Z,21.50
2023-06-15T04:55:56.105Z,21.80
2023-06-15T04:58:22.688Z,22.06
2023-06-15T05:00:49.092Z,22.28
2023-06-15T05:03:18.429Z,22.55
2023-06-15T05:05:45.740Z,22.62
2023-06-15T05:08:14.953Z,22.55
2023-06-15T05:10:46.281Z,22.73
2023-06-15T05:13:13.780Z,23.04
2023-06-15T05:15:40.313Z,23.05
2023-06-15T05:18:07.018Z,23.12
2023-06-15T05:20:33.598Z,23.36
2023-06-15T05:23:00.042Z,23.66
2023-06-15T05:25:26.599Z,24.02
2023-06-15T05:27:53.103Z,23.96
2023-06-15T05:30:19.978Z,24.30
2023-06-15T05:32:46.419Z,23.89
2023-06-15T05:35:13.021Z,23.88
2023-06-15T05:37:40.012Z,23.59
2023-06-15T05:40:07.009Z,22.95
2023-06-15T05:42:33.467Z,22.08
2023-06-15T05:45:00.005Z,21.37
2023-06-15T05:47:26.723Z,20.79
2023-06-15T05:49:53.213Z,20.25
2023-06-15T05:52:20.303Z,19.80
2023-06-15T05:54:46.691Z,19.48
2023-06-15T05:57:14.046Z,19.35
2023-06-15T05:59:40.942Z,19.20
2023-06-15T06:02:08.590Z,18.97
2023-06-15T06:04:35.577Z,18.79
2023-06-15T06:07:06.242Z,18.79
2023-06-15T06:09:34.247Z,18.74
2023-06-15T06:12:01.904Z,18.79
2023-06-15T06:14:29.268Z,18.76
2023-06-15T06:16:58.815Z,18.66
2023-06-15T06:19:25.770Z,18.78
2023-06-15T06:21:52.319Z,18.94
2023-06-15T06:24:22.029Z,19.04
2023-06-15T06:26:50.109Z,19.03
2023-06-15T06:29:16.737Z,20.06
2023-06-15T06:31:44.205Z,20.88
2023-06-15T06:34:11.863Z,21.50
2023-06-15T06:36:38.624Z,21.52
2023-06-15T06:39:05.113Z,21.66
2023-06-15T06:41:31.935Z,22.30
2023-06-15T06:43:58.388Z,22.97
2023-06-15T06:46:25.073Z,24.13
2023-06-15T06:48:51.652Z,25.13
2023-06-15T06:51:18.425Z,25.90
2023-06-15T06:53:45.393Z,26.26
2023-06-15T06:56:11.919Z,25.98
2023-06-15T06:58:38.379Z,26.42
2023-06-15T07:01:04.840Z,27.16
2023-06-15T07:03:31.458Z,26.99
2023-06-15T07:05:59.385Z,27.21
2023-06-15T07:08:26.003Z,27.34
2023-06-15T07:10:52.621Z,27.01
2023-06-15T07:13:19.078Z,27.56
2023-06-15T07:15:45.569Z,27.90
2023-06-15T07:18:15.534Z,28.12
2023-06-15T07:20:42.598Z,28.19
2023-06-15T07:23:08.943Z,28.21
2023-06-15T07:25:35.543Z,28.36
2023-06-15T07:28:02.721Z,28.45
2023-06-15T07:30:30.527Z,27.76
2023-06-15T07:32:57.180Z,28.11
2023-06-15T07:35:23.810Z,28.29
2023-06-15T07:37:50.318Z,28.23
2023-06-15T07:40:17.266Z,28.22
2023-06-15T07:42:44.052Z,27.87
2023-06-15T07:45:14.228Z,28.07
2023-06-15T07:47:42.901Z,28.29
2023-06-15T07:54:10.936Z,28.03
2023-06-15T07:56:37.885Z,28.25
2023-06-15T08:03:05.716Z,27.33
2023-06-15T08:05:32.380Z,28.15
2023-06-15T08:08:10.952Z,28.63
2023-06-15T08:17:40.099Z,28.00
2023-06-15T08:24:34.551Z,28.12
2023-06-15T08:30:09.231Z,27.98
2023-06-15T08:32:36.130Z,28.37
2023-06-15T08:35:02.681Z,28.09
2023-06-15T08:37:29.823Z,29.02
2023-06-15T08:39:57.810Z,29.28
2023-06-15T08:42:26.982Z,28.57
2023-06-15T08:44:55.740Z,28.54
2023-06-15T08:47:23.244Z,28.94
2023-06-15T08:55:37.784Z,29.29
2023-06-15T09:02:47.748Z,28.31
2023-06-15T09:05:36.414Z,29.26
2023-06-15T09:08:38.288Z,30.54
2023-06-15T09:11:09.612Z,29.92
2023-06-15T09:13:36.766Z,30.45
2023-06-15T09:16:10.292Z,29.48
2023-06-15T09:18:48.121Z,29.63
2023-06-15T09:21:16.599Z,29.25
2023-06-15T09:23:45.994Z,28.68
2023-06-15T09:26:24.602Z,27.86
2023-06-15T09:45:31.048Z,29.25
2023-06-15T09:56:53.712Z,30.47
2023-06-15T09:59:21.366Z,30.35
2023-06-15T10:01:50.512Z,29.80
2023-06-15T10:15:38.505Z,29.10
2023-06-15T10:26:36.535Z,27.36
2023-06-15T10:29:14.027Z,26.84
2023-06-15T10:31:52.390Z,27.52
2023-06-15T10:34:42.081Z,28.42
2023-06-15T10:37:25.233Z,29.14
2023-06-15T10:39:56.797Z,29.72
2023-06-15T10:42:27.100Z,30.04
2023-06-15T10:44:53.720Z,30.18
2023-06-15T10:47:23.920Z,29.13
2023-06-15T10:49:52.512Z,27.95
2023-06-15T10:52:22.827Z,27.83
2023-06-15T10:54:54.921Z,28.44
2023-06-15T10:57:36.882Z,29.14
2023-06-15T11:06:28.296Z,29.19
2023-06-15T11:09:06.475Z,29.73
2023-06-15T11:11:54.767Z,30.37
2023-06-15T11:14:28.177Z,30.61
2023-06-15T11:17:04.480Z,30.87
2023-06-15T11:19:31.749Z,30.93
2023-06-15T11:22:07.051Z,30.52
2023-06-15T11:24:39.225Z,30.53
2023-06-15T11:27:10.132Z,29.93
2023-06-15T11:29:40.105Z,30.59
2023-06-15T11:32:08.562Z,30.88
2023-06-15T11:34:39.461Z,30.47
2023-06-15T11:37:09.154Z,30.36
2023-06-15T11:39:36.684Z,31.11
2023-06-15T11:42:05.340Z,31.64
2023-06-15T11:44:32.040Z,31.47
2023-06-15T11:47:18.387Z,30.94
2023-06-15T11:50:09.198Z,30.82
2023-06-15T11:52:36.405Z,30.75
2023-06-15T11:55:11.166Z,30.58
2023-06-15T11:57:40.001Z,30.25
2023-06-15T12:00:09.389Z,30.02
2023-06-15T12:02:36.350Z,29.69
2023-06-15T12:05:03.925Z,29.90
2023-06-15T12:07:38.595Z,30.01
2023-06-15T12:10:08.184Z,29.85
2023-06-15T12:12:36.519Z,29.79
2023-06-15T12:15:04.705Z,30.28
2023-06-15T12:17:34.671Z,30.52
2023-06-15T12:20:10.774Z,30.93
2023-06-15T12:22:42.079Z,31.39
2023-06-15T12:25:09.325Z,31.61
2023-06-15T12:27:52.924Z,30.66
2023-06-15T12:30:22.227Z,30.28
2023-06-15T12:32:50.502Z,29.35
2023-06-15T12:35:39.417Z,29.52
2023-06-15T12:38:10.812Z,29.94
2023-06-15T12:40:41.279Z,29.35
2023-06-15T12:43:08.479Z,29.97
2023-06-15T12:45:35.035Z,30.32
2023-06-15T12:48:02.403Z,30.18
2023-06-15T12:50:32.764Z,29.80
2023-06-15T12:53:00.729Z,29.71
2023-06-15T12:55:28.065Z,30.19
2023-06-15T12:57:56.136Z,30.83
2023-06-15T13:00:27.411Z,31.16
2023-06-15T13:02:54.969Z,30.22
2023-06-15T13:05:21.880Z,30.52
2023-06-15T13:07:48.845Z,29.73
2023-06-15T13:10:16.295Z,30.09
2023-06-15T13:12:44.449Z,30.46
2023-06-15T13:15:11.619Z,30.74
2023-06-15T13:17:38.548Z,30.42
2023-06-15T13:20:06.529Z,29.86
2023-06-15T13:22:33.240Z,30.04
2023-06-15T13:25:00.079Z,28.98
2023-06-15T13:27:26.749Z,28.65
2023-06-15T13:29:53.653Z,29.25
2023-06-15T13:32:20.518Z,30.06
2023-06-15T13:34:46.967Z,29.84
2023-06-15T13:37:17.339Z,30.55
2023-06-15T13:39:44.610Z,30.57
2023-06-15T13:42:12.852Z,30.22
2023-06-15T13:44:39.542Z,29.60
2023-06-15T13:47:08.095Z,28.90
2023-06-15T13:49:34.751Z,28.30
2023-06-15T13:52:01.886Z,28.24
2023-06-15T13:54:28.440Z,28.28
2023-06-15T13:56:56.137Z,28.33
2023-06-15T13:59:22.740Z,28.58
2023-06-15T14:01:49.370Z,29.13
2023-06-15T14:04:16.090Z,29.68
2023-06-15T14:06:42.697Z,30.00
2023-06-15T14:09:09.182Z,30.32
2023-06-15T14:11:36.660Z,30.02
2023-06-15T14:14:03.233Z,29.48
2023-06-15T14:16:30.007Z,28.56
2023-06-15T14:18:58.364Z,28.49
2023-06-15T14:21:25.245Z,28.48
2023-06-15T14:23:51.807Z,28.66
2023-06-15T14:26:18.428Z,29.29
2023-06-15T14:28:44.901Z,29.35
2023-06-15T14:31:11.496Z,29.88
2023-06-15T14:33:38.112Z,30.05
2023-06-15T14:36:05.002Z,30.04
2023-06-15T14:38:31.482Z,30.16
2023-06-15T14:40:58.299Z,30.43
2023-06-15T14:43:24.764Z,30.60
2023-06-15T14:45:51.308Z,31.06
2023-06-15T14:48:17.950Z,31.42
2023-06-15T14:50:44.367Z,31.36
2023-06-15T14:53:10.795Z,31.24
2023-06-15T14:55:38.313Z,31.08
2023-06-15T14:58:05.118Z,30.79
2023-06-15T15:00:31.578Z,30.92
2023-06-15T15:02:58.154Z,31.07
2023-06-15T15:05:24.777Z,31.03
2023-06-15T15:07:51.757Z,30.69
2023-06-15T15:10:19.008Z,30.76
2023-06-15T15:12:48.106Z,30.86
2023-06-15T15:15:14.818Z,30.52
2023-06-15T15:17:43.308Z,30.58
2023-06-15T15:20:10.580Z,30.12
2023-06-15T15:22:38.682Z,30.36
2023-06-15T15:25:05.389Z,30.47
2023-06-15T15:27:31.815Z,29.61
2023-06-15T15:29:58.414Z,29.77
2023-06-15T15:32:24.919Z,29.86
2023-06-15T15:34:51.663Z,29.34
2023-06-15T15:37:18.581Z,29.01
2023-06-15T15:39:44.986Z,28.48
2023-06-15T15:42:11.963Z,28.79
2023-06-15T15:44:38.849Z,28.86
2023-06-15T15:47:06.125Z,28.87
2023-06-15T15:49:32.721Z,29.06
2023-06-15T15:51:59.201Z,29.17
2023-06-15T15:54:25.839Z,28.85
2023-06-15T15:56:52.374Z,28.83
2023-06-15T15:59:22.686Z,29.08
2023-06-15T16:01:49.688Z,29.13
2023-06-15T16:04:16.278Z,29.03
2023-06-15T16:06:42.732Z,29.40
2023-06-15T16:09:09.504Z,29.27
2023-06-15T16:11:36.714Z,29.17
2023-06-15T16:14:05.115Z,29.16
2023-06-15T16:16:31.659Z,28.28
2023-06-15T16:18:58.206Z,28.58
2023-06-15T16:21:25.825Z,28.51
2023-06-15T16:23:52.338Z,28.82
2023-06-15T16:26:18.790Z,28.93
2023-06-15T16:28:45.555Z,28.08
2023-06-15T16:31:12.062Z,27.79
2023-06-15T16:33:38.487Z,27.69
2023-06-15T16:36:05.171Z,27.74
2023-06-15T16:38:31.749Z,27.68
2023-06-15T16:40:58.187Z,27.95
2023-06-15T16:43:24.668Z,27.55
2023-06-15T16:45:51.238Z,27.26
2023-06-15T16:48:17.754Z,27.73
2023-06-15T16:50:44.280Z,27.88
2023-06-15T16:53:13.033Z,28.04
2023-06-15T16:55:40.436Z,27.50
2023-06-15T16:58:06.895Z,27.48
2023-06-15T17:00:33.533Z,27.69
2023-06-15T17:03:00.306Z,28.00
2023-06-15T17:05:26.992Z,27.99
2023-06-15T17:07:53.649Z,28.24
2023-06-15T17:10:20.611Z,28.39
2023-06-15T17:12:47.273Z,28.34
2023-06-15T17:15:13.822Z,28.46
2023-06-15T17:17:40.349Z,28.36
2023-06-15T17:20:07.370Z,28.12
2023-06-15T17:22:34.462Z,27.88
2023-06-15T17:25:01.499Z,27.74
2023-06-15T17:27:28.171Z,27.60
2023-06-15T17:29:54.612Z,27.68
2023-06-15T17:32:21.475Z,27.51
2023-06-15T17:34:47.965Z,27.32
2023-06-15T17:37:14.370Z,27.31
2023-06-15T17:39:40.823Z,27.00
2023-06-15T17:42:07.546Z,26.94
2023-06-15T17:44:34.076Z,27.16
2023-06-15T17:47:01.091Z,26.95
2023-06-15T17:49:27.612Z,26.87
2023-06-15T17:51:54.039Z,26.79
2023-06-15T17:54:20.708Z,26.66
2023-06-15T17:56:47.267Z,26.51
2023-06-15T17:59:13.829Z,26.64
2023-06-15T18:01:40.389Z,26.75
2023-06-15T18:04:07.399Z,26.69
2023-06-15T18:06:34.072Z,26.61
2023-06-15T18:09:00.635Z,26.53
2023-06-15T18:11:27.148Z,26.46
2023-06-15T18:13:54.773Z,26.39
2023-06-15T18:16:21.374Z,26.35
2023-06-15T18:18:47.923Z,26.24
2023-06-15T18:21:14.455Z,26.15
2023-06-15T18:23:41.033Z,26.07
2023-06-15T18:26:09.905Z,25.98
2023-06-15T18:28:36.551Z,25.87
2023-06-15T18:31:03.423Z,25.84
2023-06-15T18:33:29.851Z,25.67
2023-06-15T18:35:56.450Z,25.62
2023-06-15T18:38:23.150Z,25.56
2023-06-15T18:40:49.775Z,25.46
2023-06-15T18:43:16.391Z,25.42
2023-06-15T18:45:43.031Z,25.40
2023-06-15T18:48:09.659Z,25.34
2023-06-15T18:50:36.202Z,25.28
2023-06-15T18:53:03.788Z,25.22
2023-06-15T18:55:30.376Z,25.13
2023-06-15T18:57:56.978Z,25.06
2023-06-15T19:00:23.467Z,24.95
2023-06-15T19:02:50.180Z,24.93
2023-06-15T19:05:16.845Z,24.86
2023-06-15T19:07:44.528Z,24.75
2023-06-15T19:10:13.274Z,24.62
2023-06-15T19:12:40.317Z,24.48
2023-06-15T19:15:09.143Z,24.35
2023-06-15T19:17:37.379Z,24.20
2023-06-15T19:20:04.766Z,24.06
2023-06-15T19:22:31.258Z,23.93
2023-06-15T19:24:57.741Z,23.81
2023-06-15T19:27:25.608Z,23.70
2023-06-15T19:29:52.196Z,23.61
2023-06-15T19:32:18.744Z,23.51
2023-06-15T19:34:45.232Z,23.40
2023-06-15T19:37:11.673Z,23.27
2023-06-15T19:39:38.207Z,23.17
2023-06-15T19:42:05.341Z,23.06
2023-06-15T19:44:31.841Z,22.90
2023-06-15T19:46:58.987Z,22.83
2023-06-15T19:49:29.707Z,22.76
2023-06-15T19:51:58.086Z,22.70
2023-06-15T19:54:24.675Z,22.62
2023-06-15T19:56:51.140Z,22.58
2023-06-15T19:59:19.912Z,22.50
2023-06-15T20:01:46.601Z,22.45
2023-06-15T20:04:13.407Z,22.37
2023-06-15T20:06:39.975Z,22.30
2023-06-15T20:09:06.641Z,22.27
2023-06-15T20:11:33.091Z,22.23
2023-06-15T20:14:00.595Z,22.20
2023-06-15T20:16:27.084Z,22.21
2023-06-15T20:18:55.792Z,22.18
2023-06-15T20:21:24.442Z,22.16
2023-06-15T20:23:50.989Z,22.20
2023-06-15T20:26:17.853Z,22.32
2023-06-15T20:28:44.530Z,22.41
2023-06-15T20:31:11.453Z,22.56
2023-06-15T20:33:38.962Z,22.67
2023-06-15T20:36:06.646Z,22.74
2023-06-15T20:38:35.713Z,22.80
2023-06-15T20:41:05.153Z,22.86
2023-06-15T20:43:32.429Z,22.84
2023-06-15T20:46:00.369Z,22.81
2023-06-15T20:48:29.413Z,22.75
2023-06-15T20:50:56.493Z,22.72
2023-06-15T20:53:23.787Z,22.63
2023-06-15T20:55:50.406Z,22.65
2023-06-15T20:58:17.236Z,22.60
2023-06-15T21:00:44.302Z,22.56
2023-06-15T21:03:11.768Z,22.55
2023-06-15T21:05:38.384Z,22.51
2023-06-15T21:08:05.411Z,22.46
2023-06-15T21:10:32.204Z,22.40
2023-06-15T21:12:58.874Z,22.31
2023-06-15T21:15:25.328Z,22.25
2023-06-15T21:17:51.817Z,22.20
2023-06-15T21:20:18.556Z,22.15
2023-06-15T21:25:12.416Z,22.05
2023-06-15T21:27:38.867Z,21.98
2023-06-15T21:30:08.007Z,21.89
2023-06-15T21:32:35.318Z,21.86
2023-06-15T21:35:01.935Z,21.79
2023-06-15T21:37:28.373Z,21.75
2023-06-15T21:39:54.809Z,21.70
2023-06-15T21:42:21.338Z,21.64
2023-06-15T21:44:52.131Z,21.56
2023-06-15T21:47:19.563Z,21.46
2023-06-15T21:49:46.074Z,21.32
2023-06-15T21:52:16.169Z,21.19
2023-06-15T21:54:43.371Z,21.07
2023-06-15T21:57:13.166Z,20.95
2023-06-15T21:59:43.891Z,20.89
2023-06-15T22:02:10.959Z,20.85
2023-06-15T22:04:38.096Z,20.79
2023-06-15T22:07:05.404Z,20.77
2023-06-15T22:09:34.097Z,20.66
2023-06-15T22:12:02.100Z,20.62
2023-06-15T22:14:28.792Z,20.57
2023-06-15T22:16:56.673Z,20.54
2023-06-15T22:19:23.421Z,20.49
2023-06-15T22:21:50.098Z,20.46
2023-06-15T22:24:16.801Z,20.41
2023-06-15T22:26:46.317Z,20.28
2023-06-15T22:29:17.779Z,20.22
2023-06-15T22:31:49.794Z,20.12
2023-06-15T22:34:17.133Z,20.02
2023-06-15T22:36:44.228Z,19.95
2023-06-15T22:39:11.580Z,19.87
2023-06-15T22:41:39.112Z,19.78
2023-06-15T22:44:06.317Z,19.73
2023-06-15T22:46:32.837Z,19.70
2023-06-15T22:49:02.462Z,19.67
2023-06-15T22:51:33.963Z,19.61
2023-06-15T22:54:00.857Z,19.52
2023-06-15T22:56:27.700Z,19.43
2023-06-15T22:58:55.953Z,19.35
2023-06-15T23:01:23.008Z,19.29
2023-06-15T23:03:49.924Z,19.24
2023-06-15T23:06:20.291Z,19.20
2023-06-15T23:08:54.349Z,19.15
2023-06-15T23:11:21.535Z,19.09
2023-06-15T23:13:55.065Z,19.02
2023-06-15T23:16:23.245Z,19.01
2023-06-15T23:18:50.117Z,18.94
2023-06-15T23:21:16.615Z,18.91
2023-06-15T23:23:46.512Z,18.87
2023-06-15T23:26:16.072Z,18.79
2023-06-15T23:28:44.401Z,18.76
2023-06-15T23:31:11.112Z,18.71
2023-06-15T23:33:37.605Z,18.68
2023-06-15T23:36:04.888Z,18.67
2023-06-15T23:38:31.838Z,18.65
2023-06-15T23:40:58.546Z,18.62
2023-06-15T23:43:24.981Z,18.59
2023-06-15T23:45:51.888Z,18.58
2023-06-15T23:48:18.676Z,18.57
2023-06-15T23:50:45.261Z,18.56
2023-06-15T23:53:13.061Z,18.57
2023-06-15T23:55:43.985Z,18.56
2023-06-15T23:58:11.454Z,18.57
